sensor_id;sensor_type;location;lat;lon;timestamp;P1;durP1;ratioP1;P2;durP2;ratioP2
21837;SDS011;11081;45.946;6.140;2023-03-14T00:00:05;0.20;;;0.20;;
21837;SDS011;11081;45.946;6.140;2023-03-14T00:02:38;0.35;;;0.30;;
21837;SDS011;11081;45.946;6.140;2023-03-14T00:05:07;0.43;;;0.28;;
21837;SDS011;11081;45.946;6.140;2023-03-14T00:07:36;0.45;;;0.30;;
21837;SDS011;11081;45.946;6.140;2023-03-14T00:10:06;1.65;;;0.22;;
21837;SDS011;11081;45.946;6.140;2023-03-14T00:12:36;0.28;;;0.28;;
21837;SDS011;11081;45.946;6.140;2023-03-14T00:15:05;0.20;;;0.20;;
21837;SDS011;11081;45.946;6.140;2023-03-14T00:17:34;1.13;;;0.43;;
21837;SDS011;11081;45.946;6.140;2023-03-14T00:20:05;2.10;;;0.80;;
21837;SDS011;11081;45.946;6.140;2023-03-14T00:22:36;1.92;;;0.70;;
21837;SDS011;11081;45.946;6.140;2023-03-14T00:25:05;0.88;;;0.28;;
21837;SDS011;11081;45.946;6.140;2023-03-14T00:27:35;1.00;;;0.30;;
21837;SDS011;11081;45.946;6.140;2023-03-14T00:30:04;0.98;;;0.50;;
21837;SDS011;11081;45.946;6.140;2023-03-14T00:32:34;0.30;;;0.28;;
21837;SDS011;11081;45.946;6.140;2023-03-14T00:35:02;0.57;;;0.30;;
21837;SDS011;11081;45.946;6.140;2023-03-14T00:37:32;0.35;;;0.20;;
21837;SDS011;11081;45.946;6.140;2023-03-14T00:40:00;0.20;;;0.20;;
21837;SDS011;11081;45.946;6.140;2023-03-14T00:42:32;0.20;;;0.20;;
21837;SDS011;11081;45.946;6.140;2023-03-14T00:45:00;0.30;;;0.20;;
21837;SDS011;11081;45.946;6.140;2023-03-14T00:47:28;0.20;;;0.20;;
21837;SDS011;11081;45.946;6.140;2023-03-14T00:49:56;0.75;;;0.35;;
21837;SDS011;11081;45.946;6.140;2023-03-14T00:52:24;0.20;;;0.20;;
21837;SDS011;11081;45.946;6.140;2023-03-14T00:54:53;0.57;;;0.20;;
21837;SDS011;11081;45.946;6.140;2023-03-14T00:57:21;0.10;;;0.10;;
21837;SDS011;11081;45.946;6.140;2023-03-14T00:59:50;0.63;;;0.20;;
21837;SDS011;11081;45.946;6.140;2023-03-14T01:02:18;0.50;;;0.22;;
21837;SDS011;11081;45.946;6.140;2023-03-14T01:04:48;0.70;;;0.35;;
21837;SDS011;11081;45.946;6.140;2023-03-14T01:07:16;2.17;;;0.20;;
21837;SDS011;11081;45.946;6.140;2023-03-14T01:09:44;0.52;;;0.38;;
21837;SDS011;11081;45.946;6.140;2023-03-14T01:12:14;1.48;;;0.30;;
21837;SDS011;11081;45.946;6.140;2023-03-14T01:14:42;0.20;;;0.17;;
21837;SDS011;11081;45.946;6.140;2023-03-14T01:17:10;1.48;;;0.40;;
21837;SDS011;11081;45.946;6.140;2023-03-14T01:19:38;0.30;;;0.30;;
21837;SDS011;11081;45.946;6.140;2023-03-14T01:22:06;0.43;;;0.30;;
21837;SDS011;11081;45.946;6.140;2023-03-14T01:24:34;0.40;;;0.40;;
21837;SDS011;11081;45.946;6.140;2023-03-14T01:27:04;1.98;;;0.30;;
21837;SDS011;11081;45.946;6.140;2023-03-14T01:29:33;0.28;;;0.20;;
21837;SDS011;11081;45.946;6.140;2023-03-14T01:32:01;2.17;;;0.45;;
21837;SDS011;11081;45.946;6.140;2023-03-14T01:34:30;0.40;;;0.20;;
21837;SDS011;11081;45.946;6.140;2023-03-14T01:36:58;0.98;;;0.40;;
21837;SDS011;11081;45.946;6.140;2023-03-14T01:39:26;0.63;;;0.32;;
21837;SDS011;11081;45.946;6.140;2023-03-14T01:41:55;1.85;;;0.20;;
21837;SDS011;11081;45.946;6.140;2023-03-14T01:44:23;0.52;;;0.28;;
21837;SDS011;11081;45.946;6.140;2023-03-14T01:46:52;0.85;;;0.20;;
21837;SDS011;11081;45.946;6.140;2023-03-14T01:49:22;0.63;;;0.20;;
21837;SDS011;11081;45.946;6.140;2023-03-14T01:52:03;1.02;;;0.30;;
21837;SDS011;11081;45.946;6.140;2023-03-14T01:54:38;0.15;;;0.10;;
21837;SDS011;11081;45.946;6.140;2023-03-14T01:57:10;0.60;;;0.30;;
21837;SDS011;11081;45.946;6.140;2023-03-14T01:59:43;0.65;;;0.40;;
21837;SDS011;11081;45.946;6.140;2023-03-14T02:02:16;0.30;;;0.30;;
21837;SDS011;11081;45.946;6.140;2023-03-14T02:04:45;0.70;;;0.40;;
21837;SDS011;11081;45.946;6.140;2023-03-14T02:07:17;0.20;;;0.20;;
21837;SDS011;11081;45.946;6.140;2023-03-14T02:10:06;0.57;;;0.30;;
21837;SDS011;11081;45.946;6.140;2023-03-14T02:12:36;1.10;;;0.40;;
21837;SDS011;11081;45.946;6.140;2023-03-14T02:15:16;0.30;;;0.20;;
21837;SDS011;11081;45.946;6.140;2023-03-14T02:17:57;0.30;;;0.20;;
21837;SDS011;11081;45.946;6.140;2023-03-14T02:20:41;0.20;;;0.20;;
21837;SDS011;11081;45.946;6.140;2023-03-14T02:23:17;0.73;;;0.20;;
21837;SDS011;11081;45.946;6.140;2023-03-14T02:25:54;0.20;;;0.20;;
21837;SDS011;11081;45.946;6.140;2023-03-14T02:28:27;0.10;;;0.10;;
21837;SDS011;11081;45.946;6.140;2023-03-14T02:30:58;0.30;;;0.30;;
21837;SDS011;11081;45.946;6.140;2023-03-14T02:33:31;3.50;;;0.50;;
21837;SDS011;11081;45.946;6.140;2023-03-14T02:35:59;2.58;;;0.32;;
21837;SDS011;11081;45.946;6.140;2023-03-14T02:38:33;1.08;;;0.40;;
21837;SDS011;11081;45.946;6.140;2023-03-14T02:41:05;0.30;;;0.20;;
21837;SDS011;11081;45.946;6.140;2023-03-14T02:43:41;0.57;;;0.30;;
21837;SDS011;11081;45.946;6.140;2023-03-14T02:46:12;0.93;;;0.20;;
21837;SDS011;11081;45.946;6.140;2023-03-14T02:48:42;0.30;;;0.30;;
21837;SDS011;11081;45.946;6.140;2023-03-14T02:51:14;0.55;;;0.25;;
21837;SDS011;11081;45.946;6.140;2023-03-14T02:53:45;0.35;;;0.30;;
21837;SDS011;11081;45.946;6.140;2023-03-14T02:56:14;0.40;;;0.30;;
21837;SDS011;11081;45.946;6.140;2023-03-14T02:58:44;0.30;;;0.22;;
21837;SDS011;11081;45.946;6.140;2023-03-14T03:01:44;0.50;;;0.30;;
21837;SDS011;11081;45.946;6.140;2023-03-14T03:04:12;0.70;;;0.30;;
21837;SDS011;11081;45.946;6.140;2023-03-14T03:06:44;1.40;;;0.30;;
21837;SDS011;11081;45.946;6.140;2023-03-14T03:09:14;0.20;;;0.20;;
21837;SDS011;11081;45.946;6.140;2023-03-14T03:11:42;0.40;;;0.40;;
21837;SDS011;11081;45.946;6.140;2023-03-14T03:14:17;0.22;;;0.22;;
21837;SDS011;11081;45.946;6.140;2023-03-14T03:16:45;0.20;;;0.20;;
21837;SDS011;11081;45.946;6.140;2023-03-14T03:19:13;0.20;;;0.20;;
21837;SDS011;11081;45.946;6.140;2023-03-14T03:21:42;0.20;;;0.20;;
21837;SDS011;11081;45.946;6.140;2023-03-14T03:24:11;0.22;;;0.20;;
21837;SDS011;11081;45.946;6.140;2023-03-14T03:26:39;0.30;;;0.20;;
21837;SDS011;11081;45.946;6.140;2023-03-14T03:29:09;0.20;;;0.20;;
21837;SDS011;11081;45.946;6.140;2023-03-14T03:31:38;0.22;;;0.20;;
21837;SDS011;11081;45.946;6.140;2023-03-14T03:34:07;0.38;;;0.20;;
21837;SDS011;11081;45.946;6.140;2023-03-14T03:36:35;0.80;;;0.20;;
21837;SDS011;11081;45.946;6.140;2023-03-14T03:39:03;1.55;;;0.10;;
21837;SDS011;11081;45.946;6.140;2023-03-14T03:41:31;0.20;;;0.20;;
21837;SDS011;11081;45.946;6.140;2023-03-14T03:44:00;0.28;;;0.17;;
21837;SDS011;11081;45.946;6.140;2023-03-14T03:46:30;0.47;;;0.20;;
21837;SDS011;11081;45.946;6.140;2023-03-14T03:49:00;0.57;;;0.20;;
21837;SDS011;11081;45.946;6.140;2023-03-14T03:51:28;0.40;;;0.20;;
21837;SDS011;11081;45.946;6.140;2023-03-14T03:53:56;0.40;;;0.20;;
21837;SDS011;11081;45.946;6.140;2023-03-14T03:56:31;0.20;;;0.20;;
21837;SDS011;11081;45.946;6.140;2023-03-14T03:58:59;0.40;;;0.25;;
21837;SDS011;11081;45.946;6.140;2023-03-14T04:01:27;0.30;;;0.20;;
21837;SDS011;11081;45.946;6.140;2023-03-14T04:03:57;0.10;;;0.10;;
21837;SDS011;11081;45.946;6.140;2023-03-14T04:06:27;0.52;;;0.30;;
21837;SDS011;11081;45.946;6.140;2023-03-14T04:08:58;0.70;;;0.30;;
21837;SDS011;11081;45.946;6.140;2023-03-14T04:11:46;0.57;;;0.30;;
21837;SDS011;11081;45.946;6.140;2023-03-14T04:14:14;0.50;;;0.30;;
21837;SDS011;11081;45.946;6.140;2023-03-14T04:16:43;0.20;;;0.20;;
21837;SDS011;11081;45.946;6.140;2023-03-14T04:19:14;0.20;;;0.20;;
21837;SDS011;11081;45.946;6.140;2023-03-14T04:21:43;0.45;;;0.20;;
21837;SDS011;11081;45.946;6.140;2023-03-14T04:24:13;0.40;;;0.20;;
21837;SDS011;11081;45.946;6.140;2023-03-14T04:26:44;0.82;;;0.30;;
21837;SDS011;11081;45.946;6.140;2023-03-14T04:29:13;0.40;;;0.30;;
21837;SDS011;11081;45.946;6.140;2023-03-14T04:31:43;0.32;;;0.20;;
21837;SDS011;11081;45.946;6.140;2023-03-14T04:34:11;0.30;;;0.30;;
21837;SDS011;11081;45.946;6.140;2023-03-14T04:36:48;0.43;;;0.22;;
21837;SDS011;11081;45.946;6.140;2023-03-14T04:39:20;0.20;;;0.20;;
21837;SDS011;11081;45.946;6.140;2023-03-14T04:42:04;0.30;;;0.20;;
21837;SDS011;11081;45.946;6.140;2023-03-14T04:44:35;0.20;;;0.20;;
21837;SDS011;11081;45.946;6.140;2023-03-14T04:47:04;0.20;;;0.20;;
21837;SDS011;11081;45.946;6.140;2023-03-14T04:49:33;0.40;;;0.20;;
21837;SDS011;11081;45.946;6.140;2023-03-14T04:52:02;0.20;;;0.20;;
21837;SDS011;11081;45.946;6.140;2023-03-14T04:54:34;0.15;;;0.15;;
21837;SDS011;11081;45.946;6.140;2023-03-14T04:57:02;1.55;;;0.40;;
21837;SDS011;11081;45.946;6.140;2023-03-14T04:59:33;0.63;;;0.30;;
21837;SDS011;11081;45.946;6.140;2023-03-14T05:02:14;0.30;;;0.30;;
21837;SDS011;11081;45.946;6.140;2023-03-14T05:05:03;1.85;;;0.20;;
21837;SDS011;11081;45.946;6.140;2023-03-14T05:07:55;0.55;;;0.20;;
21837;SDS011;11081;45.946;6.140;2023-03-14T05:10:51;0.43;;;0.30;;
21837;SDS011;11081;45.946;6.140;2023-03-14T05:13:45;0.20;;;0.20;;
21837;SDS011;11081;45.946;6.140;2023-03-14T05:16:31;1.20;;;0.20;;
21837;SDS011;11081;45.946;6.140;2023-03-14T05:19:22;2.75;;;0.20;;
21837;SDS011;11081;45.946;6.140;2023-03-14T05:22:08;0.30;;;0.20;;
21837;SDS011;11081;45.946;6.140;2023-03-14T05:24:57;1.77;;;0.20;;
21837;SDS011;11081;45.946;6.140;2023-03-14T05:27:25;0.30;;;0.20;;
21837;SDS011;11081;45.946;6.140;2023-03-14T05:30:28;0.95;;;0.30;;
21837;SDS011;11081;45.946;6.140;2023-03-14T05:33:17;0.57;;;0.28;;
21837;SDS011;11081;45.946;6.140;2023-03-14T05:36:12;0.43;;;0.30;;
21837;SDS011;11081;45.946;6.140;2023-03-14T05:39:02;2.05;;;0.30;;
21837;SDS011;11081;45.946;6.140;2023-03-14T05:41:51;0.80;;;0.30;;
21837;SDS011;11081;45.946;6.140;2023-03-14T05:44:43;0.35;;;0.30;;
21837;SDS011;11081;45.946;6.140;2023-03-14T05:47:31;2.55;;;0.45;;
21837;SDS011;11081;45.946;6.140;2023-03-14T05:50:18;0.93;;;0.40;;
21837;SDS011;11081;45.946;6.140;2023-03-14T05:53:12;1.27;;;0.47;;
21837;SDS011;11081;45.946;6.140;2023-03-14T05:55:51;1.65;;;0.50;;
21837;SDS011;11081;45.946;6.140;2023-03-14T05:58:41;2.28;;;0.60;;
21837;SDS011;11081;45.946;6.140;2023-03-14T06:01:29;0.98;;;0.45;;
21837;SDS011;11081;45.946;6.140;2023-03-14T06:04:07;4.78;;;1.13;;
21837;SDS011;11081;45.946;6.140;2023-03-14T06:06:35;1.33;;;0.95;;
21837;SDS011;11081;45.946;6.140;2023-03-14T06:09:05;2.15;;;0.65;;
21837;SDS011;11081;45.946;6.140;2023-03-14T06:11:36;3.20;;;0.60;;
21837;SDS011;11081;45.946;6.140;2023-03-14T06:14:07;1.95;;;0.55;;
21837;SDS011;11081;45.946;6.140;2023-03-14T06:16:39;2.45;;;0.50;;
21837;SDS011;11081;45.946;6.140;2023-03-14T06:19:07;2.55;;;1.38;;
21837;SDS011;11081;45.946;6.140;2023-03-14T06:21:36;1.02;;;0.57;;
21837;SDS011;11081;45.946;6.140;2023-03-14T06:24:04;0.47;;;0.30;;
21837;SDS011;11081;45.946;6.140;2023-03-14T06:26:38;1.83;;;0.40;;
21837;SDS011;11081;45.946;6.140;2023-03-14T06:29:09;0.47;;;0.40;;
21837;SDS011;11081;45.946;6.140;2023-03-14T06:31:37;1.48;;;0.70;;
21837;SDS011;11081;45.946;6.140;2023-03-14T06:34:07;0.70;;;0.40;;
21837;SDS011;11081;45.946;6.140;2023-03-14T06:36:35;1.13;;;0.30;;
21837;SDS011;11081;45.946;6.140;2023-03-14T06:39:03;0.90;;;0.30;;
21837;SDS011;11081;45.946;6.140;2023-03-14T06:41:33;2.35;;;0.50;;
21837;SDS011;11081;45.946;6.140;2023-03-14T06:44:02;0.85;;;0.40;;
21837;SDS011;11081;45.946;6.140;2023-03-14T06:46:32;0.82;;;0.40;;
21837;SDS011;11081;45.946;6.140;2023-03-14T06:49:00;2.38;;;0.50;;
21837;SDS011;11081;45.946;6.140;2023-03-14T06:51:28;2.15;;;0.68;;
21837;SDS011;11081;45.946;6.140;2023-03-14T06:53:56;1.95;;;0.70;;
21837;SDS011;11081;45.946;6.140;2023-03-14T06:56:26;1.02;;;0.57;;
21837;SDS011;11081;45.946;6.140;2023-03-14T06:58:56;1.58;;;0.55;;
21837;SDS011;11081;45.946;6.140;2023-03-14T07:01:28;0.88;;;0.50;;
21837;SDS011;11081;45.946;6.140;2023-03-14T07:04:06;1.27;;;0.65;;
21837;SDS011;11081;45.946;6.140;2023-03-14T07:06:36;2.88;;;0.45;;
21837;SDS011;11081;45.946;6.140;2023-03-14T07:09:06;0.68;;;0.40;;
21837;SDS011;11081;45.946;6.140;2023-03-14T07:11:38;1.27;;;0.50;;
21837;SDS011;11081;45.946;6.140;2023-03-14T07:14:06;0.30;;;0.30;;
21837;SDS011;11081;45.946;6.140;2023-03-14T07:16:34;1.40;;;0.55;;
21837;SDS011;11081;45.946;6.140;2023-03-14T07:19:02;1.23;;;0.60;;
21837;SDS011;11081;45.946;6.140;2023-03-14T07:21:32;2.30;;;0.38;;
21837;SDS011;11081;45.946;6.140;2023-03-14T07:24:06;1.45;;;0.50;;
21837;SDS011;11081;45.946;6.140;2023-03-14T07:26:34;1.30;;;0.50;;
21837;SDS011;11081;45.946;6.140;2023-03-14T07:29:02;0.43;;;0.40;;
21837;SDS011;11081;45.946;6.140;2023-03-14T07:31:31;1.58;;;0.60;;
21837;SDS011;11081;45.946;6.140;2023-03-14T07:34:00;0.40;;;0.30;;
21837;SDS011;11081;45.946;6.140;2023-03-14T07:36:34;1.90;;;0.50;;
21837;SDS011;11081;45.946;6.140;2023-03-14T07:39:02;0.50;;;0.32;;
21837;SDS011;11081;45.946;6.140;2023-03-14T07:41:58;0.20;;;0.20;;
21837;SDS011;11081;45.946;6.140;2023-03-14T07:44:48;0.20;;;0.20;;
21837;SDS011;11081;45.946;6.140;2023-03-14T07:47:16;0.40;;;0.25;;
21837;SDS011;11081;45.946;6.140;2023-03-14T07:49:44;0.88;;;0.40;;
21837;SDS011;11081;45.946;6.140;2023-03-14T07:52:14;1.38;;;0.30;;
21837;SDS011;11081;45.946;6.140;2023-03-14T07:54:42;1.27;;;0.40;;
21837;SDS011;11081;45.946;6.140;2023-03-14T07:57:10;0.80;;;0.32;;
21837;SDS011;11081;45.946;6.140;2023-03-14T07:59:38;0.70;;;0.40;;
21837;SDS011;11081;45.946;6.140;2023-03-14T08:02:07;0.60;;;0.43;;
21837;SDS011;11081;45.946;6.140;2023-03-14T08:04:38;2.35;;;0.75;;
21837;SDS011;11081;45.946;6.140;2023-03-14T08:07:07;0.70;;;0.30;;
21837;SDS011;11081;45.946;6.140;2023-03-14T08:09:36;1.95;;;0.40;;
21837;SDS011;11081;45.946;6.140;2023-03-14T08:12:04;1.30;;;0.50;;
21837;SDS011;11081;45.946;6.140;2023-03-14T08:14:33;2.03;;;0.60;;
21837;SDS011;11081;45.946;6.140;2023-03-14T08:17:01;1.40;;;0.40;;
21837;SDS011;11081;45.946;6.140;2023-03-14T08:19:29;1.40;;;0.60;;
21837;SDS011;11081;45.946;6.140;2023-03-14T08:21:57;0.82;;;0.50;;
21837;SDS011;11081;45.946;6.140;2023-03-14T08:24:25;0.95;;;0.47;;
21837;SDS011;11081;45.946;6.140;2023-03-14T08:26:54;1.05;;;0.60;;
21837;SDS011;11081;45.946;6.140;2023-03-14T08:29:22;0.40;;;0.40;;
21837;SDS011;11081;45.946;6.140;2023-03-14T08:31:50;0.80;;;0.30;;
21837;SDS011;11081;45.946;6.140;2023-03-14T08:34:18;3.38;;;0.38;;
21837;SDS011;11081;45.946;6.140;2023-03-14T08:36:46;2.17;;;0.50;;
21837;SDS011;11081;45.946;6.140;2023-03-14T08:39:14;1.08;;;0.35;;
21837;SDS011;11081;45.946;6.140;2023-03-14T08:41:42;2.83;;;0.80;;
21837;SDS011;11081;45.946;6.140;2023-03-14T08:44:12;0.75;;;0.32;;
21837;SDS011;11081;45.946;6.140;2023-03-14T08:46:43;0.60;;;0.40;;
21837;SDS011;11081;45.946;6.140;2023-03-14T08:49:11;0.50;;;0.30;;
21837;SDS011;11081;45.946;6.140;2023-03-14T08:51:40;2.55;;;1.05;;
21837;SDS011;11081;45.946;6.140;2023-03-14T08:54:09;0.63;;;0.35;;
21837;SDS011;11081;45.946;6.140;2023-03-14T08:56:38;0.80;;;0.60;;
21837;SDS011;11081;45.946;6.140;2023-03-14T08:59:06;2.58;;;0.40;;
21837;SDS011;11081;45.946;6.140;2023-03-14T09:01:36;0.63;;;0.40;;
21837;SDS011;11081;45.946;6.140;2023-03-14T09:04:04;1.25;;;0.50;;
21837;SDS011;11081;45.946;6.140;2023-03-14T09:06:32;0.65;;;0.30;;
21837;SDS011;11081;45.946;6.140;2023-03-14T09:09:01;1.45;;;0.40;;
21837;SDS011;11081;45.946;6.140;2023-03-14T09:11:30;0.40;;;0.30;;
21837;SDS011;11081;45.946;6.140;2023-03-14T09:13:58;0.73;;;0.43;;
21837;SDS011;11081;45.946;6.140;2023-03-14T09:16:26;0.40;;;0.30;;
21837;SDS011;11081;45.946;6.140;2023-03-14T09:18:55;2.10;;;0.63;;
21837;SDS011;11081;45.946;6.140;2023-03-14T09:21:26;1.15;;;0.57;;
21837;SDS011;11081;45.946;6.140;2023-03-14T09:23:54;1.00;;;0.57;;
21837;SDS011;11081;45.946;6.140;2023-03-14T09:26:22;1.75;;;0.75;;
21837;SDS011;11081;45.946;6.140;2023-03-14T09:28:50;2.40;;;0.60;;
21837;SDS011;11081;45.946;6.140;2023-03-14T09:31:18;0.38;;;0.35;;
21837;SDS011;11081;45.946;6.140;2023-03-14T09:33:46;1.38;;;0.50;;
21837;SDS011;11081;45.946;6.140;2023-03-14T09:36:15;0.30;;;0.20;;
21837;SDS011;11081;45.946;6.140;2023-03-14T09:38:43;0.68;;;0.30;;
21837;SDS011;11081;45.946;6.140;2023-03-14T09:41:13;1.88;;;0.40;;
21837;SDS011;11081;45.946;6.140;2023-03-14T09:43:43;1.20;;;0.35;;
21837;SDS011;11081;45.946;6.140;2023-03-14T09:46:13;0.35;;;0.28;;
21837;SDS011;11081;45.946;6.140;2023-03-14T09:48:42;1.15;;;0.32;;
21837;SDS011;11081;45.946;6.140;2023-03-14T09:51:12;0.82;;;0.25;;
21837;SDS011;11081;45.946;6.140;2023-03-14T09:53:45;0.52;;;0.20;;
21837;SDS011;11081;45.946;6.140;2023-03-14T09:56:15;1.92;;;0.30;;
21837;SDS011;11081;45.946;6.140;2023-03-14T09:58:48;1.15;;;0.25;;
21837;SDS011;11081;45.946;6.140;2023-03-14T10:01:20;0.68;;;0.50;;
21837;SDS011;11081;45.946;6.140;2023-03-14T10:03:53;0.75;;;0.28;;
21837;SDS011;11081;45.946;6.140;2023-03-14T10:06:24;0.68;;;0.45;;
21837;SDS011;11081;45.946;6.140;2023-03-14T10:08:56;0.65;;;0.40;;
21837;SDS011;11081;45.946;6.140;2023-03-14T10:11:24;0.65;;;0.40;;
21837;SDS011;11081;45.946;6.140;2023-03-14T10:14:03;0.60;;;0.45;;
21837;SDS011;11081;45.946;6.140;2023-03-14T10:16:34;1.17;;;0.70;;
21837;SDS011;11081;45.946;6.140;2023-03-14T10:19:05;0.80;;;0.80;;
21837;SDS011;11081;45.946;6.140;2023-03-14T10:21:38;0.90;;;0.70;;
21837;SDS011;11081;45.946;6.140;2023-03-14T10:24:16;1.48;;;0.60;;
21837;SDS011;11081;45.946;6.140;2023-03-14T10:26:48;0.77;;;0.40;;
21837;SDS011;11081;45.946;6.140;2023-03-14T10:29:17;1.52;;;0.60;;
21837;SDS011;11081;45.946;6.140;2023-03-14T10:31:46;0.45;;;0.30;;
21837;SDS011;11081;45.946;6.140;2023-03-14T10:34:23;0.70;;;0.50;;
21837;SDS011;11081;45.946;6.140;2023-03-14T10:36:53;3.03;;;0.70;;
21837;SDS011;11081;45.946;6.140;2023-03-14T10:39:25;0.98;;;0.55;;
21837;SDS011;11081;45.946;6.140;2023-03-14T10:42:01;0.95;;;0.32;;
21837;SDS011;11081;45.946;6.140;2023-03-14T10:44:33;0.93;;;0.50;;
21837;SDS011;11081;45.946;6.140;2023-03-14T10:47:03;0.63;;;0.40;;
21837;SDS011;11081;45.946;6.140;2023-03-14T10:49:32;1.30;;;0.57;;
21837;SDS011;11081;45.946;6.140;2023-03-14T10:52:02;0.55;;;0.40;;
21837;SDS011;11081;45.946;6.140;2023-03-14T10:54:42;0.90;;;0.50;;
21837;SDS011;11081;45.946;6.140;2023-03-14T10:57:15;1.27;;;0.70;;
21837;SDS011;11081;45.946;6.140;2023-03-14T10:59:46;1.67;;;0.60;;
21837;SDS011;11081;45.946;6.140;2023-03-14T11:02:20;1.33;;;0.70;;
21837;SDS011;11081;45.946;6.140;2023-03-14T11:05:02;1.52;;;0.63;;
21837;SDS011;11081;45.946;6.140;2023-03-14T11:07:39;1.70;;;0.90;;
21837;SDS011;11081;45.946;6.140;2023-03-14T11:10:14;2.38;;;0.70;;
21837;SDS011;11081;45.946;6.140;2023-03-14T11:12:51;2.05;;;0.57;;
21837;SDS011;11081;45.946;6.140;2023-03-14T11:15:30;0.90;;;0.45;;
21837;SDS011;11081;45.946;6.140;2023-03-14T11:21:01;1.42;;;0.40;;
21837;SDS011;11081;45.946;6.140;2023-03-14T11:23:38;1.60;;;0.80;;
21837;SDS011;11081;45.946;6.140;2023-03-14T11:26:17;0.38;;;0.30;;
21837;SDS011;11081;45.946;6.140;2023-03-14T11:28:55;1.05;;;0.50;;
21837;SDS011;11081;45.946;6.140;2023-03-14T11:31:26;2.40;;;0.45;;
21837;SDS011;11081;45.946;6.140;2023-03-14T11:33:56;1.10;;;0.50;;
21837;SDS011;11081;45.946;6.140;2023-03-14T11:36:34;1.38;;;0.60;;
21837;SDS011;11081;45.946;6.140;2023-03-14T11:39:07;1.38;;;0.70;;
21837;SDS011;11081;45.946;6.140;2023-03-14T11:41:43;0.85;;;0.50;;
21837;SDS011;11081;45.946;6.140;2023-03-14T11:44:15;1.23;;;0.47;;
21837;SDS011;11081;45.946;6.140;2023-03-14T11:46:48;2.10;;;0.63;;
21837;SDS011;11081;45.946;6.140;2023-03-14T11:49:24;1.63;;;0.50;;
21837;SDS011;11081;45.946;6.140;2023-03-14T11:52:01;0.65;;;0.60;;
21837;SDS011;11081;45.946;6.140;2023-03-14T11:54:34;0.63;;;0.32;;
21837;SDS011;11081;45.946;6.140;2023-03-14T11:57:11;3.40;;;0.65;;
21837;SDS011;11081;45.946;6.140;2023-03-14T11:59:45;1.85;;;0.65;;
21837;SDS011;11081;45.946;6.140;2023-03-14T12:02:21;1.27;;;0.47;;
21837;SDS011;11081;45.946;6.140;2023-03-14T12:04:56;0.73;;;0.45;;
21837;SDS011;11081;45.946;6.140;2023-03-14T12:07:54;1.70;;;0.57;;
21837;SDS011;11081;45.946;6.140;2023-03-14T12:10:45;1.40;;;0.50;;
21837;SDS011;11081;45.946;6.140;2023-03-14T12:13:18;0.98;;;0.40;;
21837;SDS011;11081;45.946;6.140;2023-03-14T12:15:48;0.98;;;0.50;;
21837;SDS011;11081;45.946;6.140;2023-03-14T12:18:25;2.38;;;0.80;;
21837;SDS011;11081;45.946;6.140;2023-03-14T12:20:55;2.88;;;0.85;;
21837;SDS011;11081;45.946;6.140;2023-03-14T12:23:26;1.67;;;0.50;;
21837;SDS011;11081;45.946;6.140;2023-03-14T12:28:48;0.82;;;0.65;;
21837;SDS011;11081;45.946;6.140;2023-03-14T12:31:37;1.25;;;0.60;;
21837;SDS011;11081;45.946;6.140;2023-03-14T12:34:26;0.73;;;0.50;;
21837;SDS011;11081;45.946;6.140;2023-03-14T12:37:02;2.63;;;0.65;;
21837;SDS011;11081;45.946;6.140;2023-03-14T12:39:39;1.67;;;0.45;;
21837;SDS011;11081;45.946;6.140;2023-03-14T12:42:17;1.17;;;0.52;;
21837;SDS011;11081;45.946;6.140;2023-03-14T12:45:20;3.65;;;0.70;;
21837;SDS011;11081;45.946;6.140;2023-03-14T12:47:54;1.70;;;0.85;;
21837;SDS011;11081;45.946;6.140;2023-03-14T12:50:31;1.65;;;0.82;;
21837;SDS011;11081;45.946;6.140;2023-03-14T12:53:33;1.40;;;0.40;;
21837;SDS011;11081;45.946;6.140;2023-03-14T12:56:26;1.90;;;0.73;;
21837;SDS011;11081;45.946;6.140;2023-03-14T12:59:03;2.45;;;0.80;;
21837;SDS011;11081;45.946;6.140;2023-03-14T13:01:46;2.75;;;0.80;;
21837;SDS011;11081;45.946;6.140;2023-03-14T13:04:25;8.13;;;2.28;;
21837;SDS011;11081;45.946;6.140;2023-03-14T13:07:10;12.23;;;1.65;;
21837;SDS011;11081;45.946;6.140;2023-03-14T13:12:29;6.82;;;2.75;;
21837;SDS011;11081;45.946;6.140;2023-03-14T13:15:12;3.72;;;1.30;;
21837;SDS011;11081;45.946;6.140;2023-03-14T13:17:46;3.00;;;1.40;;
21837;SDS011;11081;45.946;6.140;2023-03-14T13:20:17;6.13;;;1.80;;
21837;SDS011;11081;45.946;6.140;2023-03-14T13:22:50;4.00;;;1.63;;
21837;SDS011;11081;45.946;6.140;2023-03-14T13:25:18;2.38;;;1.17;;
21837;SDS011;11081;45.946;6.140;2023-03-14T13:27:48;1.88;;;0.90;;
21837;SDS011;11081;45.946;6.140;2023-03-14T13:30:19;2.50;;;0.93;;
21837;SDS011;11081;45.946;6.140;2023-03-14T13:32:54;2.28;;;1.10;;
21837;SDS011;11081;45.946;6.140;2023-03-14T13:35:24;2.10;;;0.60;;
21837;SDS011;11081;45.946;6.140;2023-03-14T13:37:55;2.13;;;0.82;;
21837;SDS011;11081;45.946;6.140;2023-03-14T13:40:37;2.85;;;0.88;;
21837;SDS011;11081;45.946;6.140;2023-03-14T13:43:11;1.02;;;0.90;;
21837;SDS011;11081;45.946;6.140;2023-03-14T13:45:49;1.48;;;0.85;;
21837;SDS011;11081;45.946;6.140;2023-03-14T13:48:20;4.65;;;2.28;;
21837;SDS011;11081;45.946;6.140;2023-03-14T13:50:51;2.28;;;0.70;;
21837;SDS011;11081;45.946;6.140;2023-03-14T13:53:22;2.55;;;0.95;;
21837;SDS011;11081;45.946;6.140;2023-03-14T13:55:50;2.33;;;0.80;;
21837;SDS011;11081;45.946;6.140;2023-03-14T13:58:20;1.20;;;0.60;;
21837;SDS011;11081;45.946;6.140;2023-03-14T14:00:54;1.00;;;0.40;;
21837;SDS011;11081;45.946;6.140;2023-03-14T14:03:26;1.35;;;0.50;;
21837;SDS011;11081;45.946;6.140;2023-03-14T14:05:55;1.17;;;0.38;;
21837;SDS011;11081;45.946;6.140;2023-03-14T14:08:25;1.77;;;0.40;;
21837;SDS011;11081;45.946;6.140;2023-03-14T14:10:55;0.50;;;0.40;;
21837;SDS011;11081;45.946;6.140;2023-03-14T14:13:27;0.98;;;0.60;;
21837;SDS011;11081;45.946;6.140;2023-03-14T14:15:59;0.65;;;0.50;;
21837;SDS011;11081;45.946;6.140;2023-03-14T14:18:31;1.48;;;0.60;;
21837;SDS011;11081;45.946;6.140;2023-03-14T14:21:02;1.85;;;0.43;;
21837;SDS011;11081;45.946;6.140;2023-03-14T14:23:30;1.67;;;0.65;;
21837;SDS011;11081;45.946;6.140;2023-03-14T14:25:59;1.63;;;0.50;;
21837;SDS011;11081;45.946;6.140;2023-03-14T14:28:27;2.50;;;0.70;;
21837;SDS011;11081;45.946;6.140;2023-03-14T14:31:02;1.88;;;0.52;;
21837;SDS011;11081;45.946;6.140;2023-03-14T14:33:40;3.63;;;0.60;;
21837;SDS011;11081;45.946;6.140;2023-03-14T14:36:16;1.42;;;0.80;;
21837;SDS011;11081;45.946;6.140;2023-03-14T14:38:53;2.30;;;0.57;;
21837;SDS011;11081;45.946;6.140;2023-03-14T14:41:28;1.20;;;0.60;;
21837;SDS011;11081;45.946;6.140;2023-03-14T14:43:58;1.55;;;0.60;;
21837;SDS011;11081;45.946;6.140;2023-03-14T14:46:28;1.38;;;0.70;;
21837;SDS011;11081;45.946;6.140;2023-03-14T14:49:02;1.73;;;0.75;;
21837;SDS011;11081;45.946;6.140;2023-03-14T14:51:33;0.88;;;0.47;;
21837;SDS011;11081;45.946;6.140;2023-03-14T14:54:10;1.77;;;0.60;;
21837;SDS011;11081;45.946;6.140;2023-03-14T14:56:40;3.60;;;0.98;;
21837;SDS011;11081;45.946;6.140;2023-03-14T14:59:20;1.30;;;0.98;;
21837;SDS011;11081;45.946;6.140;2023-03-14T15:01:54;4.68;;;1.05;;
21837;SDS011;11081;45.946;6.140;2023-03-14T15:04:25;1.63;;;0.93;;
21837;SDS011;11081;45.946;6.140;2023-03-14T15:06:54;2.63;;;1.20;;
21837;SDS011;11081;45.946;6.140;2023-03-14T15:09:22;3.53;;;0.80;;
21837;SDS011;11081;45.946;6.140;2023-03-14T15:11:50;1.73;;;0.68;;
21837;SDS011;11081;45.946;6.140;2023-03-14T15:14:18;6.22;;;0.95;;
21837;SDS011;11081;45.946;6.140;2023-03-14T15:16:46;4.90;;;1.17;;
21837;SDS011;11081;45.946;6.140;2023-03-14T15:19:16;2.65;;;0.88;;
21837;SDS011;11081;45.946;6.140;2023-03-14T15:21:52;1.52;;;0.73;;
21837;SDS011;11081;45.946;6.140;2023-03-14T15:24:20;3.65;;;1.17;;
21837;SDS011;11081;45.946;6.140;2023-03-14T15:26:49;2.63;;;1.00;;
21837;SDS011;11081;45.946;6.140;2023-03-14T15:29:17;3.95;;;1.00;;